createdAt,value
2023-01-25T00:01:46.492Z,44.25
2023-01-25T00:04:21.195Z,39.85
2023-01-25T00:06:54.400Z,30.60
2023-01-25T00:09:28.316Z,31.05
2023-01-25T00:14:35.422Z,29.07
2023-01-25T00:17:08.490Z,29.05
2023-01-25T00:19:41.913Z,30.45
2023-01-25T00:22:14.782Z,25.72
2023-01-25T00:24:48.283Z,34.98
2023-01-25T00:27:21.227Z,35.28
2023-01-25T00:29:54.154Z,32.38
2023-01-25T00:32:37.553Z,33.63
2023-01-25T00:35:13.667Z,32.13
2023-01-25T00:37:50.797Z,28.07
2023-01-25T00:40:24.811Z,27.27
2023-01-25T00:42:57.728Z,23.45
2023-01-25T00:45:30.547Z,26.37
2023-01-25T00:48:04.355Z,27.87
2023-01-25T00:50:39.416Z,26.93
2023-01-25T00:53:12.322Z,26.30
2023-01-25T00:55:55.883Z,42.95
2023-01-25T00:58:30.299Z,25.30
2023-01-25T01:01:03.156Z,25.20
2023-01-25T01:03:36.108Z,29.18
2023-01-25T01:06:14.257Z,23.65
2023-01-25T01:08:48.160Z,26.93
2023-01-25T01:11:21.188Z,22.77
2023-01-25T01:13:54.245Z,21.77
2023-01-25T01:16:29.289Z,20.23
2023-01-25T01:21:35.000Z,16.55
2023-01-25T01:24:08.411Z,18.57
2023-01-25T01:26:42.214Z,20.60
2023-01-25T01:29:15.130Z,16.07
2023-01-25T01:31:50.163Z,13.08
2023-01-25T01:34:25.232Z,15.75
2023-01-25T01:36:58.673Z,20.35
2023-01-25T01:39:31.901Z,22.80
2023-01-25T01:42:05.368Z,14.05
2023-01-25T01:44:56.346Z,16.02
2023-01-25T01:47:44.790Z,15.72
2023-01-25T01:50:23.392Z,17.98
2023-01-25T01:52:56.618Z,15.75
2023-01-25T01:55:29.498Z,15.72
2023-01-25T01:58:03.974Z,13.67
2023-01-25T02:00:40.325Z,16.27
2023-01-25T02:03:14.399Z,15.25
2023-01-25T02:08:22.360Z,14.87
2023-01-25T02:10:55.413Z,13.73
2023-01-25T02:13:28.614Z,19.50
2023-01-25T02:16:01.549Z,18.70
2023-01-25T02:18:34.553Z,17.73
2023-01-25T02:21:08.580Z,17.67
2023-01-25T02:23:54.804Z,25.02
2023-01-25T02:26:27.748Z,30.43
2023-01-25T02:29:04.656Z,25.43
2023-01-25T02:31:38.853Z,18.80
2023-01-25T02:34:11.810Z,17.17
2023-01-25T02:36:45.571Z,19.85
2023-01-25T02:39:20.708Z,15.30
2023-01-25T02:41:55.087Z,13.90
2023-01-25T02:44:34.475Z,15.60
2023-01-25T02:47:08.953Z,12.68
2023-01-25T02:49:42.503Z,15.32
2023-01-25T02:52:15.498Z,19.48
2023-01-25T02:54:48.335Z,14.57
2023-01-25T02:57:23.178Z,16.85
2023-01-25T02:59:56.042Z,13.62
2023-01-25T03:05:02.081Z,12.55
2023-01-25T03:07:35.422Z,18.57
2023-01-25T03:10:09.712Z,15.15
2023-01-25T03:12:42.733Z,14.10
2023-01-25T03:15:16.141Z,11.90
2023-01-25T03:17:50.215Z,15.72
2023-01-25T03:20:24.471Z,17.23
2023-01-25T03:22:58.109Z,19.75
2023-01-25T03:25:31.681Z,25.45
2023-01-25T03:28:06.257Z,27.27
2023-01-25T03:30:39.857Z,29.30
2023-01-25T03:33:12.999Z,27.42
2023-01-25T03:35:46.075Z,29.15
2023-01-25T03:38:20.999Z,23.95
2023-01-25T03:43:27.587Z,24.63
2023-01-25T03:46:03.341Z,15.30
2023-01-25T03:48:36.614Z,18.90
2023-01-25T03:51:10.689Z,22.58
2023-01-25T03:53:43.898Z,19.15
2023-01-25T03:56:20.009Z,17.80
2023-01-25T03:58:57.711Z,42.95
2023-01-25T04:01:31.851Z,94.83
2023-01-25T04:04:05.234Z,45.30
2023-01-25T04:09:11.422Z,48.68
2023-01-25T04:11:45.932Z,54.73
2023-01-25T04:14:31.857Z,48.20
2023-01-25T04:16:56.732Z,46.25
2023-01-25T04:19:34.353Z,55.10
2023-01-25T04:22:09.268Z,46.40
2023-01-25T04:24:43.268Z,65.35
2023-01-25T04:27:16.051Z,43.98
2023-01-25T04:29:53.310Z,52.65
2023-01-25T04:32:26.544Z,51.13
2023-01-25T04:35:00.219Z,56.05
2023-01-25T04:37:34.123Z,72.62
2023-01-25T04:42:43.667Z,46.65
2023-01-25T04:45:16.880Z,52.48
2023-01-25T04:47:50.195Z,43.60
2023-01-25T04:52:56.072Z,44.15
2023-01-25T04:55:30.618Z,40.40
2023-01-25T04:58:05.643Z,41.73
2023-01-25T05:00:38.831Z,42.25
2023-01-25T05:03:11.950Z,50.10
2023-01-25T05:05:50.171Z,35.90
2023-01-25T05:08:26.539Z,45.88
2023-01-25T05:11:01.206Z,28.65
2023-01-25T05:13:45.481Z,25.60
2023-01-25T05:16:25.922Z,33.08
2023-01-25T05:18:59.014Z,26.73
2023-01-25T05:21:51.671Z,24.67
2023-01-25T05:24:24.698Z,35.00
2023-01-25T05:27:01.815Z,30.95
2023-01-25T05:29:40.299Z,38.90
2023-01-25T05:32:23.912Z,35.40
2023-01-25T05:34:56.672Z,32.55
2023-01-25T05:37:30.099Z,27.93
2023-01-25T05:40:11.765Z,43.68
2023-01-25T05:42:44.976Z,66.20
2023-01-25T05:45:22.215Z,73.47
2023-01-25T05:47:57.369Z,53.42
2023-01-25T05:50:30.471Z,38.60
2023-01-25T05:53:05.002Z,23.60
2023-01-25T05:55:38.932Z,38.70
2023-01-25T05:58:16.360Z,33.45
2023-01-25T06:00:49.296Z,33.93
2023-01-25T06:03:24.393Z,37.45
2023-01-25T06:06:03.132Z,43.68
2023-01-25T06:08:38.185Z,45.17
2023-01-25T06:11:14.568Z,29.45
2023-01-25T06:13:50.172Z,27.60
2023-01-25T06:16:23.433Z,19.87
2023-01-25T06:19:15.687Z,23.70
2023-01-25T06:21:56.278Z,25.00
2023-01-25T06:27:02.415Z,25.00
2023-01-25T06:29:35.321Z,31.17
2023-01-25T06:32:08.353Z,31.25
2023-01-25T06:34:41.989Z,31.05
2023-01-25T06:37:17.326Z,38.95
2023-01-25T06:39:50.469Z,43.28
2023-01-25T06:42:25.450Z,35.00
2023-01-25T06:44:58.868Z,36.23
2023-01-25T06:47:32.217Z,30.02
2023-01-25T06:50:05.597Z,38.67
2023-01-25T06:52:38.579Z,33.40
2023-01-25T06:55:13.398Z,29.95
2023-01-25T06:57:46.730Z,38.45
2023-01-25T07:00:20.374Z,29.18
2023-01-25T07:02:53.207Z,35.35
2023-01-25T07:05:26.752Z,55.98
2023-01-25T07:07:59.912Z,82.30
2023-01-25T07:10:33.912Z,88.95
2023-01-25T07:13:06.880Z,59.13
2023-01-25T07:15:39.858Z,44.20
2023-01-25T07:18:16.499Z,25.00
2023-01-25T07:20:47.503Z,29.18
2023-01-25T07:23:21.755Z,26.77
2023-01-25T07:25:54.414Z,29.52
2023-01-25T07:28:27.578Z,22.17
2023-01-25T07:31:07.983Z,31.07
2023-01-25T07:33:40.850Z,30.32
2023-01-25T07:36:14.036Z,29.73
2023-01-25T07:38:47.320Z,35.65
2023-01-25T07:41:20.349Z,51.63
2023-01-25T07:46:43.608Z,40.75
2023-01-25T07:49:16.381Z,29.50
2023-01-25T07:51:50.288Z,19.45
2023-01-25T07:54:23.012Z,21.62
2023-01-25T07:56:56.148Z,21.45
2023-01-25T07:59:31.532Z,19.35
2023-01-25T08:02:04.449Z,23.80
2023-01-25T08:04:37.557Z,20.50
2023-01-25T08:07:10.741Z,25.77
2023-01-25T08:09:44.626Z,30.32
2023-01-25T08:12:18.912Z,23.98
2023-01-25T08:17:23.931Z,37.50
2023-01-25T08:19:57.185Z,21.90
2023-01-25T08:22:30.492Z,22.33
2023-01-25T08:25:03.906Z,26.65
2023-01-25T08:27:37.184Z,21.82
2023-01-25T08:30:12.941Z,29.27
2023-01-25T08:32:45.990Z,28.98
2023-01-25T08:35:18.708Z,31.68
2023-01-25T08:37:51.780Z,23.32
2023-01-25T08:40:24.611Z,24.60
2023-01-25T08:42:58.522Z,25.95
2023-01-25T08:45:33.280Z,43.85
2023-01-25T08:48:06.581Z,20.80
2023-01-25T08:50:40.044Z,28.42
2023-01-25T08:53:12.768Z,32.45
2023-01-25T08:55:47.063Z,35.28
2023-01-25T08:58:22.589Z,31.37
2023-01-25T09:00:55.360Z,29.10
2023-01-25T09:03:28.589Z,32.42
2023-01-25T09:06:01.451Z,55.77
2023-01-25T09:08:35.293Z,35.88
2023-01-25T09:11:17.756Z,30.40
2023-01-25T09:13:51.617Z,58.78
2023-01-25T09:16:30.337Z,53.58
2023-01-25T09:19:05.755Z,25.80
2023-01-25T09:21:38.943Z,30.57
2023-01-25T09:24:11.845Z,32.90
2023-01-25T09:26:55.722Z,29.77
2023-01-25T09:29:19.874Z,28.95
2023-01-25T09:31:53.056Z,25.48
2023-01-25T09:34:38.946Z,32.85
2023-01-25T09:37:11.784Z,32.10
2023-01-25T09:39:45.202Z,29.72
2023-01-25T09:43:01.870Z,29.32
2023-01-25T09:45:38.630Z,34.48
2023-01-25T09:48:34.617Z,28.40
2023-01-25T09:51:24.109Z,28.75
2023-01-25T09:53:58.873Z,30.60
2023-01-25T09:56:39.448Z,25.68
2023-01-25T09:59:18.793Z,25.00
2023-01-25T10:01:58.865Z,34.75
2023-01-25T10:04:42.251Z,18.37
2023-01-25T10:07:32.475Z,21.42
2023-01-25T10:10:15.835Z,25.72
2023-01-25T10:12:49.025Z,19.45
2023-01-25T10:15:26.063Z,16.87
2023-01-25T10:18:15.521Z,19.12
2023-01-25T10:21:13.952Z,14.80
2023-01-25T10:24:17.866Z,28.83
2023-01-25T10:26:57.981Z,28.47
2023-01-25T10:29:36.000Z,15.80
2023-01-25T10:32:26.553Z,19.82
2023-01-25T10:35:02.339Z,14.75
2023-01-25T10:37:36.159Z,21.68
2023-01-25T10:40:20.705Z,15.95
2023-01-25T10:43:16.288Z,17.70
2023-01-25T10:45:50.498Z,18.98
2023-01-25T10:48:35.936Z,14.43
2023-01-25T10:51:11.697Z,21.02
2023-01-25T10:53:44.619Z,12.88
2023-01-25T10:56:25.088Z,19.65
2023-01-25T10:59:17.072Z,16.95
2023-01-25T11:01:49.899Z,19.77
2023-01-25T11:04:36.328Z,17.67
2023-01-25T11:07:14.177Z,29.15
2023-01-25T11:09:47.939Z,25.75
2023-01-25T11:12:22.406Z,22.32
2023-01-25T11:17:32.073Z,29.10
2023-01-25T11:20:21.961Z,21.23
2023-01-25T11:22:57.772Z,18.75
2023-01-25T11:25:34.166Z,17.65
2023-01-25T11:28:23.516Z,23.75
2023-01-25T11:30:56.415Z,17.35
2023-01-25T11:33:30.700Z,19.42
2023-01-25T11:36:30.873Z,30.80
2023-01-25T11:39:17.098Z,13.88
2023-01-25T11:42:09.719Z,12.85
2023-01-25T11:45:08.125Z,15.20
2023-01-25T11:47:57.657Z,18.40
2023-01-25T11:50:49.050Z,22.75
2023-01-25T11:53:35.951Z,22.82
2023-01-25T11:56:31.856Z,19.37
2023-01-25T11:59:30.532Z,19.35
2023-01-25T12:02:48.924Z,18.02
2023-01-25T12:05:29.200Z,11.73
2023-01-25T12:08:18.622Z,20.20
2023-01-25T12:11:07.790Z,19.10
2023-01-25T12:13:51.483Z,30.43
2023-01-25T12:16:49.909Z,22.50
2023-01-25T12:19:56.313Z,17.92
2023-01-25T12:22:51.614Z,15.63
2023-01-25T12:25:44.066Z,10.48
2023-01-25T12:28:41.763Z,13.75
2023-01-25T12:31:30.732Z,11.25
2023-01-25T12:34:30.074Z,21.40
2023-01-25T12:37:07.602Z,18.48
2023-01-25T12:39:44.779Z,16.12
2023-01-25T12:42:43.680Z,12.88
2023-01-25T12:45:23.872Z,9.68
2023-01-25T12:48:03.980Z,22.02
2023-01-25T12:50:43.035Z,15.65
2023-01-25T12:53:33.256Z,16.23
2023-01-25T12:56:09.843Z,20.97
2023-01-25T12:58:54.991Z,17.05
2023-01-25T13:01:44.214Z,22.48
2023-01-25T13:04:57.308Z,22.20
2023-01-25T13:08:09.311Z,17.20
2023-01-25T13:10:49.768Z,13.75
2023-01-25T13:13:30.104Z,10.55
2023-01-25T13:16:27.100Z,12.30
2023-01-25T13:19:00.646Z,27.58
2023-01-25T13:21:46.688Z,23.55
2023-01-25T13:24:25.744Z,31.27
2023-01-25T13:27:02.793Z,24.27
2023-01-25T13:29:43.144Z,38.30
2023-01-25T13:32:36.539Z,39.42
2023-01-25T13:35:14.271Z,43.80
2023-01-25T13:37:47.107Z,31.30
2023-01-25T13:40:37.535Z,21.25
2023-01-25T13:43:22.733Z,40.00
2023-01-25T13:45:55.985Z,48.73
2023-01-25T13:48:32.075Z,59.67
2023-01-25T13:51:08.674Z,56.15
2023-01-25T13:53:41.740Z,75.50
2023-01-25T13:56:36.004Z,55.43
2023-01-25T13:59:24.759Z,36.28
2023-01-25T14:01:58.304Z,33.88
2023-01-25T14:04:32.301Z,26.60
2023-01-25T14:07:07.846Z,35.60
2023-01-25T14:09:44.057Z,19.85
2023-01-25T14:12:30.410Z,32.17
2023-01-25T14:15:22.708Z,27.62
2023-01-25T14:18:19.408Z,22.62
2023-01-25T14:20:53.920Z,27.07
2023-01-25T14:23:34.378Z,24.05
2023-01-25T14:26:25.584Z,37.13
2023-01-25T14:29:01.985Z,62.50
2023-01-25T14:31:38.802Z,77.22
2023-01-25T14:34:19.034Z,163.07
2023-01-25T14:37:08.848Z,147.98
2023-01-25T14:39:42.323Z,81.45
2023-01-25T14:42:16.332Z,112.73
2023-01-25T14:44:49.947Z,69.45
2023-01-25T14:47:32.982Z,55.90
2023-01-25T14:50:40.521Z,44.48
2023-01-25T14:53:25.008Z,44.53
2023-01-25T14:55:57.852Z,51.35
2023-01-25T14:58:32.368Z,71.22
2023-01-25T15:01:06.021Z,90.53
2023-01-25T15:03:42.751Z,57.88
2023-01-25T15:06:16.075Z,50.55
2023-01-25T15:08:51.941Z,52.75
2023-01-25T15:11:38.539Z,38.88
2023-01-25T15:14:22.353Z,38.13
2023-01-25T15:16:56.457Z,77.60
2023-01-25T15:22:06.341Z,147.20
2023-01-25T15:27:12.958Z,154.07
2023-01-25T15:29:47.089Z,164.57
2023-01-25T15:34:55.614Z,80.10
2023-01-25T15:37:28.778Z,88.27
2023-01-25T15:40:01.966Z,89.62
2023-01-25T15:42:36.350Z,73.50
2023-01-25T15:47:46.698Z,132.63
2023-01-25T15:50:21.896Z,91.47
2023-01-25T15:52:54.921Z,82.65
2023-01-25T15:55:27.983Z,89.53
2023-01-25T15:58:01.203Z,90.65
2023-01-25T16:00:34.360Z,65.08
2023-01-25T16:03:08.122Z,49.50
2023-01-25T16:05:41.462Z,58.38
2023-01-25T16:08:19.617Z,87.47
2023-01-25T16:10:52.569Z,122.05
2023-01-25T16:13:26.424Z,116.53
2023-01-25T16:16:00.759Z,62.50
2023-01-25T16:18:33.909Z,104.60
2023-01-25T16:21:07.059Z,163.03
2023-01-25T16:23:40.683Z,210.80
2023-01-25T16:26:30.150Z,112.70
2023-01-25T16:29:03.111Z,206.45
2023-01-25T16:31:36.381Z,174.47
2023-01-25T16:34:09.716Z,260.93
2023-01-25T16:36:42.681Z,197.05
2023-01-25T16:39:28.445Z,230.12
2023-01-25T16:42:01.405Z,272.65
2023-01-25T16:44:34.956Z,345.63
2023-01-25T16:47:08.738Z,338.82
2023-01-25T16:49:42.279Z,353.02
2023-01-25T16:52:15.361Z,542.87
2023-01-25T16:54:48.587Z,633.20
2023-01-25T16:57:21.583Z,568.33
2023-01-25T16:59:54.501Z,495.10
2023-01-25T17:02:28.197Z,437.60
2023-01-25T17:05:01.422Z,372.33
2023-01-25T17:07:34.963Z,205.55
2023-01-25T17:10:09.709Z,332.00
2023-01-25T17:12:43.485Z,324.25
2023-01-25T17:15:18.249Z,338.50
2023-01-25T17:17:51.482Z,394.85
2023-01-25T17:20:24.344Z,369.75
2023-01-25T17:22:57.375Z,329.70
2023-01-25T17:25:31.920Z,366.12
2023-01-25T17:28:05.552Z,398.20
2023-01-25T17:30:41.910Z,376.40
2023-01-25T17:33:16.497Z,340.12
2023-01-25T17:35:49.500Z,420.88
2023-01-25T17:38:22.579Z,358.80
2023-01-25T17:40:55.826Z,286.65
2023-01-25T17:43:29.294Z,295.45
2023-01-25T17:46:15.240Z,359.40
2023-01-25T17:48:48.647Z,339.68
2023-01-25T17:51:24.992Z,378.37
2023-01-25T17:53:59.109Z,256.32
2023-01-25T17:56:32.633Z,259.48
2023-01-25T17:59:07.147Z,238.22
2023-01-25T18:01:43.184Z,169.02
2023-01-25T18:04:17.945Z,178.35
2023-01-25T18:06:51.412Z,207.45
2023-01-25T18:09:25.867Z,191.83
2023-01-25T18:14:31.712Z,123.58
2023-01-25T18:17:05.012Z,183.57
2023-01-25T18:19:38.627Z,159.63
2023-01-25T18:22:11.412Z,221.60
2023-01-25T18:24:45.424Z,113.57
2023-01-25T18:27:24.722Z,140.20
2023-01-25T18:30:21.004Z,165.10
2023-01-25T18:32:53.901Z,162.40
2023-01-25T18:35:26.971Z,142.05
2023-01-25T18:38:01.482Z,90.12
2023-01-25T18:40:34.471Z,72.90
2023-01-25T18:43:08.170Z,80.53
2023-01-25T18:45:41.953Z,141.35
2023-01-25T18:48:16.521Z,116.67
2023-01-25T18:50:49.421Z,98.30
2023-01-25T18:53:22.394Z,81.67
2023-01-25T18:56:11.624Z,99.00
2023-01-25T18:58:45.389Z,90.40
2023-01-25T19:01:21.667Z,75.17
2023-01-25T19:03:55.071Z,68.90
2023-01-25T19:06:28.018Z,62.93
2023-01-25T19:09:02.194Z,56.70
2023-01-25T19:14:07.665Z,66.40
2023-01-25T19:16:40.540Z,61.10
2023-01-25T19:19:13.381Z,52.30
2023-01-25T19:21:46.372Z,50.00
2023-01-25T19:24:21.060Z,65.20
2023-01-25T19:29:27.261Z,74.27
2023-01-25T19:32:00.542Z,58.60
2023-01-25T19:34:33.904Z,47.75
2023-01-25T19:37:07.426Z,44.25
2023-01-25T19:39:40.456Z,39.53
2023-01-25T19:42:13.538Z,50.25
2023-01-25T19:44:46.639Z,44.05
2023-01-25T19:47:19.377Z,47.60
2023-01-25T19:49:52.288Z,53.55
2023-01-25T19:52:25.675Z,67.10
2023-01-25T19:54:58.579Z,67.13
2023-01-25T19:57:33.019Z,60.52
2023-01-25T20:00:07.571Z,67.90
2023-01-25T20:02:40.924Z,63.55
2023-01-25T20:05:14.360Z,64.90
2023-01-25T20:07:47.251Z,63.42
2023-01-25T20:10:20.482Z,57.17
2023-01-25T20:12:53.431Z,72.40
2023-01-25T20:15:26.292Z,79.03
2023-01-25T20:17:59.712Z,85.77
2023-01-25T20:20:33.251Z,89.37
2023-01-25T20:23:06.075Z,88.62
2023-01-25T20:25:39.356Z,69.62
2023-01-25T20:28:12.570Z,59.13
2023-01-25T20:30:45.594Z,50.43
2023-01-25T20:33:19.052Z,48.40
2023-01-25T20:35:52.078Z,55.30
2023-01-25T20:38:24.958Z,52.17
2023-01-25T20:41:02.774Z,45.38
2023-01-25T20:43:36.026Z,42.53
2023-01-25T20:46:09.208Z,40.83
2023-01-25T20:48:42.041Z,42.33
2023-01-25T20:51:17.304Z,40.48
2023-01-25T20:53:54.170Z,32.70
2023-01-25T20:56:27.527Z,38.33
2023-01-25T20:59:00.289Z,32.53
2023-01-25T21:01:36.718Z,31.80
2023-01-25T21:04:11.875Z,25.82
2023-01-25T21:06:45.057Z,33.83
2023-01-25T21:09:19.397Z,34.45
2023-01-25T21:11:52.452Z,45.73
2023-01-25T21:14:25.183Z,31.40
2023-01-25T21:16:58.135Z,26.82
2023-01-25T21:19:31.105Z,29.40
2023-01-25T21:22:03.957Z,24.00
2023-01-25T21:24:36.950Z,19.43
2023-01-25T21:27:09.763Z,24.80
2023-01-25T21:29:42.711Z,21.80
2023-01-25T21:32:15.617Z,24.35
2023-01-25T21:34:48.661Z,29.53
2023-01-25T21:37:22.687Z,28.17
2023-01-25T21:39:55.837Z,34.23
2023-01-25T21:42:30.374Z,29.87
2023-01-25T21:45:21.454Z,28.60
2023-01-25T21:47:56.079Z,34.67
2023-01-25T21:50:46.641Z,37.17
2023-01-25T21:53:19.445Z,33.75
2023-01-25T21:55:58.579Z,38.65
2023-01-25T21:58:31.448Z,44.73
2023-01-25T22:01:05.048Z,28.77
2023-01-25T22:03:38.372Z,27.60
2023-01-25T22:06:11.145Z,20.37
2023-01-25T22:08:44.507Z,19.60
2023-01-25T22:11:17.306Z,14.57
2023-01-25T22:13:50.229Z,18.73
2023-01-25T22:16:23.180Z,24.50
2023-01-25T22:18:56.648Z,21.97
2023-01-25T22:21:33.005Z,34.20
2023-01-25T22:24:07.969Z,32.17
2023-01-25T22:27:28.088Z,20.48
2023-01-25T22:30:00.852Z,21.97
2023-01-25T22:32:33.956Z,24.73
2023-01-25T22:35:07.249Z,27.20
2023-01-25T22:37:40.091Z,30.77
2023-01-25T22:40:14.474Z,19.10
2023-01-25T22:42:47.827Z,19.52
2023-01-25T22:45:20.758Z,19.48
2023-01-25T22:47:53.860Z,18.65
2023-01-25T22:50:27.113Z,20.05
2023-01-25T22:52:59.967Z,19.98
2023-01-25T22:55:34.508Z,12.03
2023-01-25T22:58:07.401Z,19.50
2023-01-25T23:00:40.727Z,21.50
2023-01-25T23:03:13.504Z,19.42
2023-01-25T23:05:46.382Z,22.73
2023-01-25T23:08:19.206Z,23.65
2023-01-25T23:10:52.620Z,18.82
2023-01-25T23:13:25.465Z,17.82
2023-01-25T23:16:03.660Z,20.88
2023-01-25T23:18:53.710Z,19.20
2023-01-25T23:21:29.141Z,24.12
2023-01-25T23:24:03.329Z,25.35
2023-01-25T23:26:42.567Z,36.88
2023-01-25T23:29:16.138Z,33.73
2023-01-25T23:31:49.443Z,27.25
2023-01-25T23:34:22.176Z,23.87
2023-01-25T23:36:55.559Z,15.93
2023-01-25T23:39:28.255Z,16.25
2023-01-25T23:42:01.046Z,15.30
2023-01-25T23:44:33.890Z,15.18
2023-01-25T23:47:07.272Z,15.20
2023-01-25T23:49:40.361Z,15.65
2023-01-25T23:52:13.158Z,16.15
2023-01-25T23:54:45.956Z,14.15
2023-01-25T23:57:19.077Z,18.87
2023-01-25T23:59:51.919Z,10.82
